Time;durP1;ratioP1;P1;durP2;ratioP2;P2;SDS_P1;SDS_P2;PMS_P1;PMS_P2;Temp;Humidity;BMP_temperature;BMP_pressure;BME280_temperature;BME280_humidity;BME280_pressure;Samples;Min_cycle;Max_cycle;Signal;HPM_P1;HPM_P2
2023/05/26 00:02:07;;;;;;;1999.90;999.90;;;13.90;99.90;;;;;;5063601;28;20068;-80
2023/05/26 00:04:33;;;;;;;1999.90;999.90;;;13.90;99.90;;;;;;5071153;28;20017;-80
2023/05/26 00:06:59;;;;;;;1999.90;999.90;;;13.80;99.90;;;;;;5073441;28;20036;-80
2023/05/26 00:09:25;;;;;;;1999.90;999.90;;;13.80;99.90;;;;;;5073016;28;20073;-80
2023/05/26 00:11:51;;;;;;;1999.90;999.90;;;13.80;99.90;;;;;;5072544;28;20494;-71
2023/05/26 00:14:17;;;;;;;1999.90;999.90;;;13.80;99.90;;;;;;5070931;28;20201;-80
2023/05/26 00:16:43;;;;;;;1999.90;999.90;;;13.80;99.90;;;;;;5066400;28;20017;-80
2023/05/26 00:19:09;;;;;;;1999.90;999.90;;;13.80;99.90;;;;;;5053395;28;20077;-79
2023/05/26 00:21:36;;;;;;;1999.90;999.90;;;13.70;99.90;;;;;;5053200;28;20119;-79
2023/05/26 00:24:02;;;;;;;1999.90;999.90;;;13.70;99.90;;;;;;5053145;28;20400;-71
2023/05/26 00:26:28;;;;;;;1999.90;999.90;;;13.70;99.90;;;;;;5053156;28;20036;-71
2023/05/26 00:28:53;;;;;;;1999.90;999.90;;;13.70;99.90;;;;;;5053107;28;20028;-80
2023/05/26 00:31:19;;;;;;;1999.90;999.90;;;13.60;99.90;;;;;;5053303;28;20523;-71
2023/05/26 00:33:44;;;;;;;1999.90;999.90;;;13.60;99.90;;;;;;5053037;28;20029;-80
2023/05/26 00:36:10;;;;;;;1999.90;999.90;;;13.60;99.90;;;;;;5052850;28;20033;-79
2023/05/26 00:38:35;;;;;;;1999.90;999.90;;;13.60;99.90;;;;;;5053114;28;20434;-80
2023/05/26 00:41:01;;;;;;;1999.90;999.90;;;13.50;99.90;;;;;;5053021;28;20029;-79
2023/05/26 00:43:27;;;;;;;1999.90;999.90;;;13.50;99.90;;;;;;5052891;28;20327;-79
2023/05/26 00:45:52;;;;;;;1999.90;999.90;;;13.50;99.90;;;;;;5052218;28;20150;-79
2023/05/26 00:48:18;;;;;;;1999.90;999.90;;;13.50;99.90;;;;;;5051361;28;20085;-79
2023/05/26 00:50:44;;;;;;;1999.90;999.90;;;13.50;99.90;;;;;;5052938;28;20029;-72
2023/05/26 00:53:11;;;;;;;1999.90;999.90;;;13.50;99.90;;;;;;5052953;28;20495;-80
2023/05/26 00:55:37;;;;;;;1999.90;999.90;;;13.50;99.90;;;;;;5051867;28;20032;-79
2023/05/26 00:58:03;;;;;;;1999.90;999.90;;;13.50;99.90;;;;;;5052673;28;20022;-79
2023/05/26 01:00:29;;;;;;;1999.90;999.90;;;13.50;99.90;;;;;;5052626;28;20488;-79
2023/05/26 01:02:57;;;;;;;1999.90;999.90;;;13.50;99.90;;;;;;5056532;28;20020;-72
2023/05/26 01:05:23;;;;;;;1999.90;999.90;;;13.50;99.90;;;;;;5072896;28;20029;-72
2023/05/26 01:07:48;;;;;;;1999.90;999.90;;;13.50;99.90;;;;;;5072428;28;20041;-79
2023/05/26 01:10:14;;;;;;;1999.90;999.90;;;13.40;99.90;;;;;;5072286;28;20067;-72
2023/05/26 01:13:01;;;;;;;1999.90;999.90;;;13.40;99.90;;;;;;5072552;28;20035;-79
2023/05/26 01:15:36;;;;;;;1999.90;999.90;;;13.40;99.90;;;;;;5072671;28;20082;-71
2023/05/26 01:18:20;;;;;;;1999.90;999.90;;;13.30;99.90;;;;;;5054400;28;20039;-72
2023/05/26 01:20:49;;;;;;;1999.90;999.90;;;13.30;99.90;;;;;;5051741;28;20101;-79
2023/05/26 01:23:39;;;;;;;1999.90;999.90;;;13.20;99.90;;;;;;5052359;28;20052;-72
2023/05/26 01:26:40;;;;;;;1999.90;999.90;;;13.20;99.90;;;;;;5052676;28;20021;-79
2023/05/26 01:29:11;;;;;;;1999.90;999.90;;;13.20;99.90;;;;;;5030506;28;20423;-71
2023/05/26 01:31:39;;;;;;;1999.90;999.90;;;13.20;99.90;;;;;;5030899;28;20041;-72
2023/05/26 01:34:05;;;;;;;1999.90;999.90;;;13.10;99.90;;;;;;5029853;28;20036;-80
2023/05/26 01:36:31;;;;;;;1999.90;999.90;;;13.10;99.90;;;;;;5030097;28;20456;-79
2023/05/26 01:38:57;;;;;;;1999.90;999.90;;;13.00;99.90;;;;;;5030279;28;20104;-79
2023/05/26 01:41:53;;;;;;;1999.90;999.90;;;13.00;99.90;;;;;;5030684;28;20428;-72
2023/05/26 01:44:29;;;;;;;1999.90;999.90;;;13.00;99.90;;;;;;5030341;28;20048;-72
2023/05/26 01:46:55;;;;;;;1999.90;999.90;;;13.10;99.90;;;;;;5030402;28;20037;-79
2023/05/26 01:49:27;;;;;;;1999.90;999.90;;;13.00;99.90;;;;;;5013474;28;20396;-79
2023/05/26 01:51:58;;;;;;;1999.90;999.90;;;13.00;99.90;;;;;;5030144;28;20026;-79
2023/05/26 01:54:27;;;;;;;1999.90;999.90;;;13.00;99.90;;;;;;5030040;28;20172;-72
2023/05/26 01:56:53;;;;;;;1999.90;999.90;;;13.00;99.90;;;;;;5032745;28;20049;-72
2023/05/26 01:59:20;;;;;;;1999.90;999.90;;;13.00;99.90;;;;;;5033803;28;20408;-79
2023/05/26 02:01:47;;;;;;;1999.90;999.90;;;12.90;99.90;;;;;;5033621;28;20154;-79
2023/05/26 02:04:12;;;;;;;1999.90;999.90;;;12.90;99.90;;;;;;5070055;28;20056;-79
2023/05/26 02:06:39;;;;;;;1999.90;999.90;;;12.90;99.90;;;;;;5076114;28;20082;-79
2023/05/26 02:09:05;;;;;;;1999.90;999.90;;;12.90;99.90;;;;;;5075156;28;20102;-71
2023/05/26 02:11:32;;;;;;;1999.90;999.90;;;12.90;99.90;;;;;;5074363;28;20032;-79
2023/05/26 02:13:58;;;;;;;1999.90;999.90;;;12.90;99.90;;;;;;5075482;28;20494;-72
2023/05/26 02:16:24;;;;;;;1999.90;999.90;;;12.90;99.90;;;;;;5070006;28;20125;-79
2023/05/26 02:18:50;;;;;;;1999.90;999.90;;;12.90;99.90;;;;;;5055725;28;20021;-71
2023/05/26 02:21:16;;;;;;;1999.90;999.90;;;12.90;99.90;;;;;;5054200;28;20402;-71
2023/05/26 02:23:45;;;;;;;1999.90;999.90;;;13.00;99.90;;;;;;5055335;28;20028;-72
2023/05/26 02:26:11;;;;;;;1999.90;999.90;;;13.00;99.90;;;;;;5055389;28;20032;-79
2023/05/26 02:28:38;;;;;;;1999.90;999.90;;;13.00;99.90;;;;;;5055585;28;20037;-72
2023/05/26 02:31:04;;;;;;;1999.90;999.90;;;13.00;99.90;;;;;;5055622;28;20552;-79
2023/05/26 02:33:29;;;;;;;1999.90;999.90;;;13.00;99.90;;;;;;5053950;28;20029;-80
2023/05/26 02:35:55;;;;;;;1999.90;999.90;;;13.00;99.90;;;;;;5055336;28;20032;-72
2023/05/26 02:38:22;;;;;;;1999.90;999.90;;;13.00;99.90;;;;;;5055101;28;20014;-79
2023/05/26 02:40:51;;;;;;;1999.90;999.90;;;13.00;99.90;;;;;;5055072;28;20025;-79
2023/05/26 02:43:17;;;;;;;1999.90;999.90;;;13.00;99.90;;;;;;5055386;28;20029;-79
2023/05/26 02:45:43;;;;;;;1999.90;999.90;;;13.00;99.90;;;;;;5053736;28;20021;-79
2023/05/26 02:48:08;;;;;;;1999.90;999.90;;;13.00;99.90;;;;;;5055030;28;20048;-78
2023/05/26 02:50:34;;;;;;;1999.90;999.90;;;12.90;99.90;;;;;;5054982;28;20082;-79
2023/05/26 02:53:00;;;;;;;1999.90;999.90;;;12.90;99.90;;;;;;5055311;28;20028;-80
2023/05/26 02:55:25;;;;;;;1999.90;999.90;;;12.90;99.90;;;;;;5054468;28;20041;-79
2023/05/26 02:57:51;;;;;;;1999.90;999.90;;;12.90;99.90;;;;;;5054019;28;20028;-79
2023/05/26 03:00:18;;;;;;;1999.90;999.90;;;12.90;99.90;;;;;;5054853;28;20056;-79
2023/05/26 03:02:44;;;;;;;1999.90;999.90;;;12.80;99.90;;;;;;5055647;28;20374;-71
2023/05/26 03:05:10;;;;;;;1999.90;999.90;;;12.80;99.90;;;;;;5074808;28;20036;-79
2023/05/26 03:07:35;;;;;;;1999.90;999.90;;;12.70;99.90;;;;;;5074525;28;20044;-79
2023/05/26 03:10:01;;;;;;;1999.90;999.90;;;12.70;99.90;;;;;;5074345;28;20074;-72
2023/05/26 03:12:27;;;;;;;1999.90;999.90;;;12.70;99.90;;;;;;5074524;28;20082;-80
2023/05/26 03:14:54;;;;;;;1999.90;999.90;;;12.60;99.90;;;;;;5074475;28;20032;-71
2023/05/26 03:17:20;;;;;;;1999.90;999.90;;;12.60;99.90;;;;;;5061156;28;20031;-80
2023/05/26 03:19:46;;;;;;;1999.90;999.90;;;12.60;99.90;;;;;;5054437;28;20021;-80
2023/05/26 03:22:11;;;;;;;1999.90;999.90;;;12.60;99.90;;;;;;5054321;28;20017;-79
2023/05/26 03:24:38;;;;;;;1999.90;999.90;;;12.60;99.90;;;;;;5054366;28;20033;-79
2023/05/26 03:27:03;;;;;;;1999.90;999.90;;;12.50;99.90;;;;;;5054144;28;20021;-71
2023/05/26 03:29:30;;;;;;;1999.90;999.90;;;12.50;99.90;;;;;;5054309;28;20032;-71
2023/05/26 03:31:56;;;;;;;1999.90;999.90;;;12.50;99.90;;;;;;5054150;28;20045;-72
2023/05/26 03:34:23;;;;;;;1999.90;999.90;;;12.50;99.90;;;;;;5054365;28;20079;-79
2023/05/26 03:36:49;;;;;;;1999.90;999.90;;;12.50;99.90;;;;;;5054054;28;20021;-79
2023/05/26 03:39:15;;;;;;;1999.90;999.90;;;12.40;99.90;;;;;;5053627;28;20388;-79
2023/05/26 03:41:41;;;;;;;1999.90;999.90;;;12.40;99.90;;;;;;5053858;28;20025;-71
2023/05/26 03:44:07;;;;;;;1999.90;999.90;;;12.40;99.90;;;;;;5054203;28;20033;-80
2023/05/26 03:46:33;;;;;;;1999.90;999.90;;;12.50;99.90;;;;;;5054080;28;20096;-79
2023/05/26 03:48:59;;;;;;;1999.90;999.90;;;12.50;99.90;;;;;;5053704;28;20032;-79
2023/05/26 03:51:25;;;;;;;1999.90;999.90;;;12.40;99.90;;;;;;5053822;28;20017;-71
2023/05/26 03:53:50;;;;;;;1999.90;999.90;;;12.40;99.90;;;;;;5053847;28;20383;-72
2023/05/26 03:56:16;;;;;;;1999.90;999.90;;;12.40;99.90;;;;;;5053537;28;20484;-79
2023/05/26 03:58:42;;;;;;;1999.90;999.90;;;12.50;99.90;;;;;;5052814;28;20108;-79
2023/05/26 04:01:07;;;;;;;1999.90;999.90;;;12.50;99.90;;;;;;5053461;28;20028;-71
2023/05/26 04:03:33;;;;;;;1999.90;999.90;;;12.50;99.90;;;;;;5062684;28;20071;-80
2023/05/26 04:06:00;;;;;;;1999.90;999.90;;;12.50;99.90;;;;;;5073367;28;20027;-71
2023/05/26 04:08:26;;;;;;;1999.90;999.90;;;12.50;99.90;;;;;;5073314;28;20541;-79
2023/05/26 04:10:52;;;;;;;1999.90;999.90;;;12.60;99.90;;;;;;5073423;28;20013;-79
2023/05/26 04:13:17;;;;;;;1999.90;999.90;;;12.60;99.90;;;;;;5073318;28;20399;-79
2023/05/26 04:15:43;;;;;;;1999.90;999.90;;;12.70;99.90;;;;;;5072760;28;20020;-79
2023/05/26 04:18:10;;;;;;;1999.90;999.90;;;12.70;99.90;;;;;;5053782;28;20079;-79
2023/05/26 04:20:36;;;;;;;1999.90;999.90;;;12.80;99.90;;;;;;5052704;28;20092;-72
2023/05/26 04:23:01;;;;;;;1999.90;999.90;;;12.90;99.90;;;;;;5053480;28;20029;-80
2023/05/26 04:25:27;;;;;;;1999.90;999.90;;;12.90;99.90;;;;;;5053125;28;20025;-79
2023/05/26 04:27:56;;;;;;;1999.90;999.90;;;12.90;99.90;;;;;;5051838;28;20024;-80
2023/05/26 04:30:22;;;;;;;1999.90;999.90;;;12.90;99.90;;;;;;5053039;28;20028;-80
2023/05/26 04:32:48;;;;;;;1999.90;999.90;;;12.90;99.90;;;;;;5053111;28;20032;-71
2023/05/26 04:35:14;;;;;;;1999.90;999.90;;;13.00;99.90;;;;;;5059011;28;20089;-79
2023/05/26 04:37:40;;;;;;;1999.90;999.90;;;13.00;99.90;;;;;;5072669;28;20024;-79
2023/05/26 04:40:09;;;;;;;1999.90;999.90;;;13.00;99.90;;;;;;5073252;28;20028;-80
2023/05/26 04:42:38;;;;;;;1999.90;999.90;;;13.00;99.90;;;;;;5073129;28;20023;-80
2023/05/26 04:45:04;;;;;;;1999.90;999.90;;;13.00;99.90;;;;;;5073138;28;20027;-71
2023/05/26 04:47:34;;;;;;;1999.90;999.90;;;13.10;99.90;;;;;;5072636;28;20032;-71
2023/05/26 04:50:01;;;;;;;1999.90;999.90;;;13.10;99.90;;;;;;5072992;28;20029;-80
2023/05/26 04:52:27;;;;;;;1999.90;999.90;;;13.10;99.90;;;;;;5072993;28;20048;-72
2023/05/26 04:54:53;;;;;;;1999.90;999.90;;;13.10;99.90;;;;;;5072836;28;20032;-79
2023/05/26 04:57:19;;;;;;;1999.90;999.90;;;13.10;99.90;;;;;;5072581;28;20056;-71
2023/05/26 04:59:45;;;;;;;1999.90;999.90;;;13.20;99.90;;;;;;5071941;28;20020;-72
2023/05/26 05:02:11;;;;;;;1999.90;999.90;;;13.20;99.90;;;;;;5072538;28;20052;-79
2023/05/26 05:04:37;;;;;;;1999.90;999.90;;;13.20;99.90;;;;;;5067965;28;20060;-79
2023/05/26 05:07:02;;;;;;;1999.90;999.90;;;13.20;99.90;;;;;;5052502;28;20032;-80
2023/05/26 05:09:28;;;;;;;1999.90;999.90;;;13.20;99.90;;;;;;5074957;28;20395;-72
2023/05/26 05:11:54;;;;;;;1999.90;999.90;;;13.30;99.90;;;;;;5072487;28;20036;-71
2023/05/26 05:14:20;;;;;;;1999.90;999.90;;;13.30;99.90;;;;;;5072713;28;20035;-79
2023/05/26 05:16:46;;;;;;;1999.90;999.90;;;13.40;99.90;;;;;;5072587;28;20021;-80
2023/05/26 05:19:12;;;;;;;1999.90;999.90;;;13.40;99.90;;;;;;5072515;28;20021;-80
2023/05/26 05:21:38;;;;;;;1999.90;999.90;;;13.50;99.90;;;;;;5072512;28;20059;-79
2023/05/26 05:24:03;;;;;;;1999.90;999.90;;;13.50;99.90;;;;;;5072411;28;20150;-71
2023/05/26 05:26:29;;;;;;;1999.90;999.90;;;13.50;99.90;;;;;;5072142;28;20441;-80
2023/05/26 05:28:55;;;;;;;1999.90;999.90;;;13.60;99.90;;;;;;5071483;28;20030;-80
2023/05/26 05:31:20;;;;;;;1999.90;999.90;;;13.60;99.90;;;;;;5074741;28;20025;-79
2023/05/26 05:33:46;;;;;;;1999.90;999.90;;;13.70;99.90;;;;;;5076087;28;20130;-71
2023/05/26 05:36:11;;;;;;;1999.90;999.90;;;13.80;99.90;;;;;;5076059;28;20067;-71
2023/05/26 05:38:37;;;;;;;1999.90;999.90;;;13.80;99.90;;;;;;5076244;28;20025;-79
2023/05/26 05:41:03;;;;;;;1999.90;999.90;;;13.90;99.90;;;;;;5076283;28;20432;-80
2023/05/26 05:43:28;;;;;;;1999.90;999.90;;;13.90;99.90;;;;;;5076151;28;20096;-79
2023/05/26 05:45:54;;;;;;;1999.90;999.90;;;14.00;99.90;;;;;;5076073;28;20495;-79
2023/05/26 05:48:20;;;;;;;1999.90;999.90;;;14.10;99.90;;;;;;5075977;28;20074;-72
2023/05/26 05:50:46;;;;;;;1999.90;999.90;;;14.20;99.90;;;;;;5075844;28;20369;-72
2023/05/26 05:53:11;;;;;;;1999.90;999.90;;;14.20;99.90;;;;;;5075888;28;20074;-79
2023/05/26 05:55:37;;;;;;;1999.90;999.90;;;14.20;99.90;;;;;;5075885;28;20029;-72
2023/05/26 05:58:03;;;;;;;1999.90;999.90;;;14.30;99.90;;;;;;5074788;28;20121;-72
2023/05/26 06:00:28;;;;;;;1999.90;999.90;;;14.30;99.90;;;;;;5075482;28;20373;-79
2023/05/26 06:02:54;;;;;;;1999.90;999.90;;;14.40;99.90;;;;;;5071725;28;20085;-72
2023/05/26 06:05:20;;;;;;;1999.90;999.90;;;14.50;99.90;;;;;;5067617;28;20067;-79
2023/05/26 06:07:45;;;;;;;1999.90;999.90;;;14.50;99.90;;;;;;5074738;28;20507;-79
2023/05/26 06:10:11;;;;;;;1999.90;999.90;;;14.60;99.90;;;;;;5073140;28;20165;-79
2023/05/26 06:12:36;;;;;;;1999.90;999.90;;;14.70;99.90;;;;;;5068833;28;20127;-78
2023/05/26 06:15:02;;;;;;;1999.90;999.90;;;14.80;99.90;;;;;;5065201;28;20549;-72
2023/05/26 06:17:28;;;;;;;1999.90;999.90;;;14.80;99.90;;;;;;5061246;28;20492;-72
2023/05/26 06:19:54;;;;;;;1999.90;999.90;;;14.90;99.90;;;;;;5068105;28;20044;-79
2023/05/26 06:22:19;;;;;;;1999.90;999.90;;;15.00;99.90;;;;;;5073134;28;20029;-79
2023/05/26 06:24:45;;;;;;;1999.90;999.90;;;15.10;99.90;;;;;;5074044;28;20033;-79
2023/05/26 06:27:10;;;;;;;1999.90;999.90;;;15.10;99.90;;;;;;5057501;28;20182;-79
2023/05/26 06:29:36;;;;;;;1999.90;999.90;;;15.20;99.90;;;;;;5072006;28;20462;-71
2023/05/26 06:32:02;;;;;;;1999.90;999.90;;;15.30;99.90;;;;;;5066329;28;20116;-79
2023/05/26 06:34:28;;;;;;;1999.90;999.90;;;15.40;99.90;;;;;;5053475;28;20542;-79
2023/05/26 06:36:54;;;;;;;1999.90;999.90;;;15.50;99.90;;;;;;5064790;28;20032;-79
2023/05/26 06:39:20;;;;;;;1999.90;999.90;;;15.60;99.90;;;;;;5056705;28;20025;-72
2023/05/26 06:41:46;;;;;;;1999.90;999.90;;;15.70;99.90;;;;;;5068409;28;20453;-73
2023/05/26 06:44:12;;;;;;;1999.90;999.90;;;15.80;99.90;;;;;;5065488;28;20107;-73
2023/05/26 06:46:38;;;;;;;1999.90;999.90;;;15.90;99.90;;;;;;5071399;28;20093;-80
2023/05/26 06:49:03;;;;;;;1999.90;999.90;;;16.00;99.90;;;;;;5069058;28;20111;-76
2023/05/26 06:51:29;;;;;;;1999.90;999.90;;;16.10;99.90;;;;;;5061532;28;20395;-79
2023/05/26 06:53:55;;;;;;;1999.90;999.90;;;16.20;99.90;;;;;;5052336;28;20079;-72
2023/05/26 06:56:21;;;;;;;1999.90;999.90;;;16.30;99.90;;;;;;5057608;28;20028;-73
2023/05/26 06:58:47;;;;;;;1999.90;999.90;;;16.40;99.90;;;;;;5066795;28;20021;-79
2023/05/26 07:01:12;;;;;;;1999.90;999.90;;;16.50;99.90;;;;;;5066175;28;20154;-80
2023/05/26 07:03:38;;;;;;;1999.90;999.90;;;16.70;99.90;;;;;;5067785;28;20570;-80
2023/05/26 07:06:03;;;;;;;1999.90;999.90;;;16.80;99.90;;;;;;5065500;28;20028;-73
2023/05/26 07:08:29;;;;;;;1999.90;999.90;;;17.00;99.90;;;;;;5060692;28;20045;-80
2023/05/26 07:10:55;;;;;;;1999.90;999.90;;;17.10;99.90;;;;;;5054543;28;20441;-80
2023/05/26 07:13:20;;;;;;;1999.90;999.90;;;17.30;99.90;;;;;;5063207;28;20031;-80
2023/05/26 07:15:46;;;;;;;1999.90;999.90;;;17.40;99.90;;;;;;5063561;28;20025;-79
2023/05/26 07:18:12;;;;;;;1999.90;999.90;;;17.50;99.90;;;;;;5060350;28;20074;-80
2023/05/26 07:20:38;;;;;;;1999.90;999.90;;;17.50;99.90;;;;;;5071776;28;20056;-73
2023/05/26 07:23:04;;;;;;;1999.90;999.90;;;17.70;99.90;;;;;;5062235;28;20024;-80
2023/05/26 07:25:30;;;;;;;1999.90;999.90;;;17.70;99.90;;;;;;5071983;28;20488;-81
2023/05/26 07:27:55;;;;;;;1999.90;999.90;;;17.90;99.90;;;;;;5068844;28;20039;-77
2023/05/26 07:30:21;;;;;;;1999.90;999.90;;;18.00;99.90;;;;;;5053625;28;20476;-81
2023/05/26 07:32:47;;;;;;;1999.90;999.90;;;18.40;99.90;;;;;;5070240;28;20089;-74
2023/05/26 07:35:13;;;;;;;1999.90;999.90;;;19.30;99.90;;;;;;5060765;28;20083;-73
2023/05/26 07:37:38;;;;;;;1999.90;999.90;;;21.50;99.90;;;;;;5067329;28;20484;-81
2023/05/26 07:40:05;;;;;;;1999.90;999.90;;;23.30;99.90;;;;;;5070416;28;20487;-73
2023/05/26 07:42:31;;;;;;;1999.90;999.90;;;24.40;99.90;;;;;;5066328;28;20506;-81
2023/05/26 07:44:56;;;;;;;1999.90;999.90;;;24.60;99.90;;;;;;5068563;28;20016;-81
2023/05/26 07:47:23;;;;;;;1999.90;999.90;;;25.00;99.90;;;;;;5057277;28;20559;-74
2023/05/26 07:49:49;;;;;;;1999.90;999.90;;;25.30;99.90;;;;;;5057989;28;20029;-81
2023/05/26 07:52:15;;;;;;;1999.90;999.90;;;25.60;99.90;;;;;;5065224;28;20032;-81
2023/05/26 07:54:41;;;;;;;1999.90;999.90;;;25.70;99.90;;;;;;5069264;28;20098;-82
2023/05/26 07:57:07;;;;;;;1999.90;999.90;;;26.60;99.90;;;;;;5065362;28;20107;-82
2023/05/26 07:59:32;;;;;;;1999.90;999.90;;;27.10;99.90;;;;;;5049723;28;20025;-74
2023/05/26 08:01:58;;;;;;;1999.90;999.90;;;27.50;99.90;;;;;;5051581;28;20090;-74
2023/05/26 08:04:24;;;;;;;1999.90;999.90;;;27.70;99.90;;;;;;5062854;28;20559;-81
2023/05/26 08:06:49;;;;;;;1999.90;999.90;;;27.90;99.80;;;;;;5059923;28;20033;-81
2023/05/26 08:09:15;;;;;;;1999.90;999.90;;;28.30;99.70;;;;;;5058671;28;20078;-82
2023/05/26 08:11:41;;;;;;;1999.90;999.90;;;28.70;98.50;;;;;;5055180;28;20032;-74
2023/05/26 08:14:07;;;;;;;1999.90;999.90;;;28.50;98.50;;;;;;5057067;28;20111;-74
2023/05/26 08:16:32;;;;;;;1999.90;999.90;;;29.00;98.40;;;;;;5053300;28;20056;-81
2023/05/26 08:18:58;;;;;;;1999.90;999.90;;;29.10;97.70;;;;;;5069535;28;20027;-83
2023/05/26 08:21:23;;;;;;;1999.90;999.90;;;29.00;98.10;;;;;;5069563;28;20025;-82
2023/05/26 08:23:49;;;;;;;1999.90;999.90;;;29.00;97.70;;;;;;5069476;28;20138;-82
2023/05/26 08:26:15;;;;;;;1999.90;999.90;;;29.80;97.20;;;;;;5067494;28;20078;-73
2023/05/26 08:28:40;;;;;;;1999.90;999.90;;;30.00;97.20;;;;;;5054224;28;20036;-83
2023/05/26 08:31:06;;;;;;;1999.90;999.90;;;30.10;96.20;;;;;;5061005;28;20040;-83
2023/05/26 08:33:32;;;;;;;1999.90;999.90;;;30.40;97.40;;;;;;5064952;28;20388;-80
2023/05/26 08:35:57;;;;;;;1999.90;999.90;;;31.10;95.40;;;;;;5057545;28;20411;-72
2023/05/26 08:38:23;;;;;;;1999.90;999.90;;;31.60;96.20;;;;;;5067905;28;20530;-80
2023/05/26 08:40:51;;;;;;;1999.90;999.90;;;31.40;95.30;;;;;;5069806;28;20468;-72
2023/05/26 08:43:21;;;;;;;1999.90;999.90;;;32.00;94.00;;;;;;5068825;28;20146;-80
2023/05/26 08:45:47;;;;;;;1999.90;999.90;;;31.80;93.80;;;;;;5069391;28;20074;-79
2023/05/26 08:48:14;;;;;;;1999.90;999.90;;;31.60;94.70;;;;;;5049436;28;20023;-80
2023/05/26 08:50:41;;;;;;;1999.90;999.90;;;31.80;94.60;;;;;;5061342;28;20032;-72
2023/05/26 08:53:07;;;;;;;1999.90;999.90;;;31.60;94.00;;;;;;5049797;28;20029;-72
2023/05/26 08:55:33;;;;;;;1999.90;999.90;;;32.00;94.80;;;;;;5054443;28;20040;-80
2023/05/26 08:58:00;;;;;;;1999.90;999.90;;;32.20;93.20;;;;;;5060359;28;20695;-81
2023/05/26 09:00:30;;;;;;;1999.90;999.90;;;32.50;93.00;;;;;;5064677;28;20037;-72
2023/05/26 09:03:01;;;;;;;1999.90;999.90;;;32.50;93.60;;;;;;5064968;28;20361;-81
2023/05/26 09:05:29;;;;;;;1999.90;999.90;;;33.10;92.90;;;;;;5059036;28;20047;-73
2023/05/26 09:07:55;;;;;;;1999.90;999.90;;;32.60;94.00;;;;;;5058581;28;20472;-81
2023/05/26 09:10:31;;;;;;;1999.90;999.90;;;32.20;93.20;;;;;;5063708;28;20052;-81
2023/05/26 09:13:11;;;;;;;1999.90;999.90;;;32.70;93.30;;;;;;5048978;28;20115;-81
2023/05/26 09:15:38;;;;;;;1999.90;999.90;;;32.70;92.90;;;;;;5052858;28;20025;-81
2023/05/26 09:18:08;;;;;;;1999.90;999.90;;;32.60;92.80;;;;;;5058648;28;20487;-72
2023/05/26 09:20:42;;;;;;;1999.90;999.90;;;33.50;92.60;;;;;;5053121;28;20028;-82
2023/05/26 09:23:08;;;;;;;1999.90;999.90;;;33.30;92.20;;;;;;5068884;28;20028;-81
2023/05/26 09:25:38;;;;;;;1999.90;999.90;;;33.30;92.50;;;;;;5069160;28;20432;-81
2023/05/26 09:28:05;;;;;;;1999.90;999.90;;;33.10;92.60;;;;;;5056331;28;20055;-81
2023/05/26 09:30:51;;;;;;;1999.90;999.90;;;33.70;92.60;;;;;;5068621;28;20151;-73
2023/05/26 09:33:18;;;;;;;1999.90;999.90;;;33.10;92.10;;;;;;5054526;28;20116;-81
2023/05/26 09:35:46;;;;;;;1999.90;999.90;;;33.20;92.70;;;;;;5055541;28;20566;-72
2023/05/26 09:38:15;;;;;;;1999.90;999.90;;;33.10;92.10;;;;;;5058023;28;20480;-80
2023/05/26 09:40:46;;;;;;;1999.90;999.90;;;33.40;92.00;;;;;;5068318;28;20798;-81
2023/05/26 09:43:12;;;;;;;1999.90;999.90;;;32.90;92.10;;;;;;5068532;28;20064;-72
2023/05/26 09:45:39;;;;;;;1999.90;999.90;;;33.70;91.70;;;;;;5068798;28;20040;-73
2023/05/26 09:48:07;;;;;;;1999.90;999.90;;;33.40;92.00;;;;;;5063880;28;20028;-81
2023/05/26 09:50:34;;;;;;;1999.90;999.90;;;33.40;91.80;;;;;;5065752;28;20035;-82
2023/05/26 09:53:01;;;;;;;1999.90;999.90;;;33.80;92.00;;;;;;5068684;28;20021;-80
2023/05/26 09:55:27;;;;;;;1999.90;999.90;;;33.20;91.30;;;;;;5065198;28;20021;-73
2023/05/26 09:57:53;;;;;;;1999.90;999.90;;;33.30;92.30;;;;;;5064567;28;20082;-81
2023/05/26 10:00:21;;;;;;;1999.90;999.90;;;33.90;91.90;;;;;;5064217;28;20033;-82
2023/05/26 10:02:47;;;;;;;1999.90;999.90;;;33.80;91.50;;;;;;5057515;28;20063;-82
2023/05/26 10:05:14;;;;;;;1999.90;999.90;;;33.20;91.30;;;;;;5060120;28;20033;-82
2023/05/26 10:07:43;;;;;;;1999.90;999.90;;;33.00;91.80;;;;;;5049923;28;20072;-81
2023/05/26 10:10:15;;;;;;;1999.90;999.90;;;32.90;93.10;;;;;;5064526;28;20052;-74
2023/05/26 10:12:42;;;;;;;1999.90;999.90;;;33.50;92.60;;;;;;5055472;28;20143;-82
2023/05/26 10:15:09;;;;;;;1999.90;999.90;;;33.60;91.70;;;;;;5065179;28;20029;-81
2023/05/26 10:17:34;;;;;;;1999.90;999.90;;;33.60;92.10;;;;;;5065166;28;20047;-81
2023/05/26 10:20:01;;;;;;;1999.90;999.90;;;33.70;91.70;;;;;;5053180;28;20041;-82
2023/05/26 10:22:52;;;;;;;1999.90;999.90;;;33.70;91.50;;;;;;5053458;28;20096;-82
2023/05/26 10:25:38;;;;;;;1999.90;999.90;;;33.40;91.50;;;;;;5052770;28;20501;-82
2023/05/26 10:28:42;;;;;;;1999.90;999.90;;;33.40;92.50;;;;;;5053277;28;20392;-80
2023/05/26 10:31:08;;;;;;;1999.90;999.90;;;33.40;91.40;;;;;;5053382;28;20032;-81
2023/05/26 10:33:41;;;;;;;1999.90;999.90;;;32.60;92.10;;;;;;5059468;28;20078;-78
2023/05/26 10:36:16;;;;;;;1999.90;999.90;;;32.90;92.50;;;;;;5067452;28;20705;-73
2023/05/26 10:38:52;;;;;;;1999.90;999.90;;;33.90;91.10;;;;;;5068677;28;20024;-83
2023/05/26 10:41:35;;;;;;;1999.90;999.90;;;34.50;91.10;;;;;;5071013;28;20503;-82
2023/05/26 10:44:02;;;;;;;1999.90;999.90;;;34.80;90.40;;;;;;5060600;28;20099;-82
2023/05/26 10:46:46;;;;;;;1999.90;999.90;;;34.10;90.90;;;;;;5052224;28;20119;-82
2023/05/26 10:49:24;;;;;;;1999.90;999.90;;;34.00;90.90;;;;;;5070372;28;20491;-73
2023/05/26 10:51:53;;;;;;;1999.90;999.90;;;34.00;91.30;;;;;;5065203;28;20045;-81
2023/05/26 10:54:25;;;;;;;1999.90;999.90;;;33.90;91.00;;;;;;5071583;28;20029;-82
2023/05/26 10:56:54;;;;;;;1999.90;999.90;;;34.00;90.60;;;;;;5060690;28;20574;-73
2023/05/26 10:59:35;;;;;;;1999.90;999.90;;;33.30;91.80;;;;;;5052394;28;20547;-82
2023/05/26 11:02:05;;;;;;;1999.90;999.90;;;33.50;91.80;;;;;;5053329;28;20025;-73
2023/05/26 11:04:41;;;;;;;1999.90;999.90;;;33.60;91.50;;;;;;5057108;28;20029;-82
2023/05/26 11:07:20;;;;;;;1999.90;999.90;;;33.60;92.20;;;;;;5055050;28;20041;-73
2023/05/26 11:10:05;;;;;;;1999.90;999.90;;;33.90;91.10;;;;;;5058660;28;20624;-74
2023/05/26 11:12:35;;;;;;;1999.90;999.90;;;33.70;92.00;;;;;;5069237;28;20129;-82
2023/05/26 11:15:27;;;;;;;1999.90;999.90;;;33.60;91.90;;;;;;5067424;28;20064;-73
2023/05/26 11:17:59;;;;;;;1999.90;999.90;;;32.80;91.60;;;;;;5055584;28;20029;-81
2023/05/26 11:20:25;;;;;;;1999.90;999.90;;;32.90;91.40;;;;;;5069844;28;20055;-80
2023/05/26 11:22:52;;;;;;;1999.90;999.90;;;33.10;93.00;;;;;;5072833;28;20483;-74
2023/05/26 11:25:18;;;;;;;1999.90;999.90;;;33.50;91.50;;;;;;5072204;28;20024;-84
2023/05/26 11:27:48;;;;;;;1999.90;999.90;;;33.60;92.20;;;;;;5070697;28;20146;-73
2023/05/26 11:30:14;;;;;;;1999.90;999.90;;;33.60;92.30;;;;;;5063921;28;20031;-73
2023/05/26 11:32:51;;;;;;;1999.90;999.90;;;33.60;91.80;;;;;;5070470;28;20032;-82
2023/05/26 11:35:30;;;;;;;1999.90;999.90;;;33.50;91.40;;;;;;5071022;28;20036;-72
2023/05/26 11:37:56;;;;;;;1999.90;999.90;;;33.50;91.20;;;;;;5070652;28;20032;-81
2023/05/26 11:40:22;;;;;;;1999.90;999.90;;;33.20;91.60;;;;;;5070491;28;20029;-81
2023/05/26 11:42:55;;;;;;;1999.90;999.90;;;33.30;92.00;;;;;;5070773;28;20581;-72
2023/05/26 11:45:21;;;;;;;1999.90;999.90;;;33.20;91.50;;;;;;5072062;28;20119;-82
2023/05/26 11:47:48;;;;;;;1999.90;999.90;;;33.40;92.00;;;;;;5066252;28;20083;-74
2023/05/26 11:50:13;;;;;;;1999.90;999.90;;;33.00;91.70;;;;;;5073233;28;20039;-73
2023/05/26 11:52:50;;;;;;;1999.90;999.90;;;32.70;91.80;;;;;;5071014;28;20032;-72
2023/05/26 11:55:19;;;;;;;1999.90;999.90;;;32.90;91.50;;;;;;5070545;28;20036;-71
2023/05/26 11:57:46;;;;;;;1999.90;999.90;;;33.10;91.70;;;;;;5069802;28;20025;-73
2023/05/26 12:00:14;;;;;;;1999.90;999.90;;;32.90;91.60;;;;;;5070449;28;20024;-81
2023/05/26 12:02:40;;;;;;;1999.90;999.90;;;32.60;91.50;;;;;;5068365;28;20158;-81